sensor_id;sensor_type;location;lat;lon;timestamp;temperature;humidity
70321;DHT22;61127;55.826;37.046;2023-06-22T00:00:58;11.90;56.42
70321;DHT22;61127;55.826;37.046;2023-06-22T00:03:25;11.88;56.27
70321;DHT22;61127;55.826;37.046;2023-06-22T00:05:51;11.86;56.44
70321;DHT22;61127;55.826;37.046;2023-06-22T00:08:18;11.84;56.49
70321;DHT22;61127;55.826;37.046;2023-06-22T00:10:46;11.81;56.64
70321;DHT22;61127;55.826;37.046;2023-06-22T00:13:14;11.78;56.75
70321;DHT22;61127;55.826;37.046;2023-06-22T00:15:42;11.76;56.98
70321;DHT22;61127;55.826;37.046;2023-06-22T00:18:08;11.75;56.85
70321;DHT22;61127;55.826;37.046;2023-06-22T00:20:35;11.74;56.87
70321;DHT22;61127;55.826;37.046;2023-06-22T00:23:08;11.72;57.13
70321;DHT22;61127;55.826;37.046;2023-06-22T00:25:35;11.70;56.91
70321;DHT22;61127;55.826;37.046;2023-06-22T00:28:02;11.68;57.02
70321;DHT22;61127;55.826;37.046;2023-06-22T00:30:28;11.67;57.23
70321;DHT22;61127;55.826;37.046;2023-06-22T00:32:57;11.61;57.51
70321;DHT22;61127;55.826;37.046;2023-06-22T00:35:24;11.59;57.93
70321;DHT22;61127;55.826;37.046;2023-06-22T00:37:59;11.55;58.19
70321;DHT22;61127;55.826;37.046;2023-06-22T00:40:32;11.54;58.32
70321;DHT22;61127;55.826;37.046;2023-06-22T00:42:59;11.51;57.91
70321;DHT22;61127;55.826;37.046;2023-06-22T00:45:25;11.51;58.64
70321;DHT22;61127;55.826;37.046;2023-06-22T00:47:53;11.48;58.54
70321;DHT22;61127;55.826;37.046;2023-06-22T00:50:24;11.46;58.94
70321;DHT22;61127;55.826;37.046;2023-06-22T00:52:58;11.45;59.03
70321;DHT22;61127;55.826;37.046;2023-06-22T00:55:25;11.46;58.68
70321;DHT22;61127;55.826;37.046;2023-06-22T00:58:11;11.44;59.12
70321;DHT22;61127;55.826;37.046;2023-06-22T01:00:38;11.43;59.14
70321;DHT22;61127;55.826;37.046;2023-06-22T01:03:04;11.41;59.00
70321;DHT22;61127;55.826;37.046;2023-06-22T01:05:35;11.43;59.13
70321;DHT22;61127;55.826;37.046;2023-06-22T01:08:43;11.43;59.77
70321;DHT22;61127;55.826;37.046;2023-06-22T01:11:24;11.44;59.48
70321;DHT22;61127;55.826;37.046;2023-06-22T01:16:43;11.44;59.41
70321;DHT22;61127;55.826;37.046;2023-06-22T01:22:03;11.45;59.80
70321;DHT22;61127;55.826;37.046;2023-06-22T01:29:51;11.49;60.23
70321;DHT22;61127;55.826;37.046;2023-06-22T01:32:18;11.52;60.64
70321;DHT22;61127;55.826;37.046;2023-06-22T01:34:46;11.55;60.28
70321;DHT22;61127;55.826;37.046;2023-06-22T01:37:14;11.58;59.99
70321;DHT22;61127;55.826;37.046;2023-06-22T01:39:40;11.60;59.85
70321;DHT22;61127;55.826;37.046;2023-06-22T01:42:07;11.63;60.05
70321;DHT22;61127;55.826;37.046;2023-06-22T01:44:33;11.64;60.00
70321;DHT22;61127;55.826;37.046;2023-06-22T01:47:00;11.68;59.80
70321;DHT22;61127;55.826;37.046;2023-06-22T01:49:27;11.69;59.90
70321;DHT22;61127;55.826;37.046;2023-06-22T01:51:53;11.73;59.61
70321;DHT22;61127;55.826;37.046;2023-06-22T01:54:20;11.76;59.61
70321;DHT22;61127;55.826;37.046;2023-06-22T01:56:46;11.76;59.59
70321;DHT22;61127;55.826;37.046;2023-06-22T02:02:20;11.76;58.97
70321;DHT22;61127;55.826;37.046;2023-06-22T02:05:06;11.78;59.25
70321;DHT22;61127;55.826;37.046;2023-06-22T02:07:36;11.82;58.84
70321;DHT22;61127;55.826;37.046;2023-06-22T02:10:06;11.86;59.16
70321;DHT22;61127;55.826;37.046;2023-06-22T02:12:33;11.91;59.19
70321;DHT22;61127;55.826;37.046;2023-06-22T02:15:00;11.97;59.07
70321;DHT22;61127;55.826;37.046;2023-06-22T02:17:29;12.03;59.07
70321;DHT22;61127;55.826;37.046;2023-06-22T02:20:02;12.07;59.44
70321;DHT22;61127;55.826;37.046;2023-06-22T02:22:35;12.16;59.28
70321;DHT22;61127;55.826;37.046;2023-06-22T02:25:02;12.22;59.40
70321;DHT22;61127;55.826;37.046;2023-06-22T02:27:30;12.32;59.51
70321;DHT22;61127;55.826;37.046;2023-06-22T02:29:57;12.41;59.55
70321;DHT22;61127;55.826;37.046;2023-06-22T02:32:23;12.49;59.05
70321;DHT22;61127;55.826;37.046;2023-06-22T02:35:09;12.58;59.09
70321;DHT22;61127;55.826;37.046;2023-06-22T02:37:38;12.67;59.11
70321;DHT22;61127;55.826;37.046;2023-06-22T02:40:10;12.77;58.97
70321;DHT22;61127;55.826;37.046;2023-06-22T02:42:39;12.86;58.84
70321;DHT22;61127;55.826;37.046;2023-06-22T02:45:05;12.95;58.61
70321;DHT22;61127;55.826;37.046;2023-06-22T02:47:32;13.06;58.65
70321;DHT22;61127;55.826;37.046;2023-06-22T02:49:58;13.17;58.85
70321;DHT22;61127;55.826;37.046;2023-06-22T02:52:24;13.22;58.67
70321;DHT22;61127;55.826;37.046;2023-06-22T02:54:50;13.32;58.74
70321;DHT22;61127;55.826;37.046;2023-06-22T02:57:35;13.40;58.64
70321;DHT22;61127;55.826;37.046;2023-06-22T03:00:03;13.50;58.50
70321;DHT22;61127;55.826;37.046;2023-06-22T03:02:43;13.59;58.51
70321;DHT22;61127;55.826;37.046;2023-06-22T03:05:10;13.69;58.31
70321;DHT22;61127;55.826;37.046;2023-06-22T03:07:40;13.77;58.10
70321;DHT22;61127;55.826;37.046;2023-06-22T03:10:10;13.84;57.55
70321;DHT22;61127;55.826;37.046;2023-06-22T03:12:40;13.92;57.45
70321;DHT22;61127;55.826;37.046;2023-06-22T03:15:07;13.99;57.58
70321;DHT22;61127;55.826;37.046;2023-06-22T03:17:35;14.10;57.53
70321;DHT22;61127;55.826;37.046;2023-06-22T03:20:05;14.20;57.53
70321;DHT22;61127;55.826;37.046;2023-06-22T03:22:39;14.26;57.45
70321;DHT22;61127;55.826;37.046;2023-06-22T03:25:06;0.00;57.15
70321;DHT22;61127;55.826;37.046;2023-06-22T03:27:41;14.45;56.68
70321;DHT22;61127;55.826;37.046;2023-06-22T03:30:09;14.57;56.87
70321;DHT22;61127;55.826;37.046;2023-06-22T03:32:54;14.67;56.55
70321;DHT22;61127;55.826;37.046;2023-06-22T03:35:20;14.80;56.23
70321;DHT22;61127;55.826;37.046;2023-06-22T03:37:48;14.88;55.79
70321;DHT22;61127;55.826;37.046;2023-06-22T03:40:14;15.00;55.84
70321;DHT22;61127;55.826;37.046;2023-06-22T03:42:40;15.10;56.07
70321;DHT22;61127;55.826;37.046;2023-06-22T03:45:09;15.25;56.26
70321;DHT22;61127;55.826;37.046;2023-06-22T03:47:35;15.40;55.77
70321;DHT22;61127;55.826;37.046;2023-06-22T03:50:01;15.56;55.54
70321;DHT22;61127;55.826;37.046;2023-06-22T03:52:33;15.71;54.88
70321;DHT22;61127;55.826;37.046;2023-06-22T03:54:59;15.90;54.78
70321;DHT22;61127;55.826;37.046;2023-06-22T03:57:25;16.12;54.44
70321;DHT22;61127;55.826;37.046;2023-06-22T03:59:51;16.36;54.37
70321;DHT22;61127;55.826;37.046;2023-06-22T04:02:17;16.59;54.21
70321;DHT22;61127;55.826;37.046;2023-06-22T04:04:43;16.82;53.64
70321;DHT22;61127;55.826;37.046;2023-06-22T04:07:09;17.02;53.72
70321;DHT22;61127;55.826;37.046;2023-06-22T04:09:35;17.22;53.43
70321;DHT22;61127;55.826;37.046;2023-06-22T04:12:01;17.40;52.96
70321;DHT22;61127;55.826;37.046;2023-06-22T04:14:28;17.61;52.46
70321;DHT22;61127;55.826;37.046;2023-06-22T04:16:53;17.83;51.95
70321;DHT22;61127;55.826;37.046;2023-06-22T04:19:19;18.05;51.60
70321;DHT22;61127;55.826;37.046;2023-06-22T04:21:46;18.29;50.63
70321;DHT22;61127;55.826;37.046;2023-06-22T04:24:14;18.52;50.59
70321;DHT22;61127;55.826;37.046;2023-06-22T04:26:40;18.68;49.63
70321;DHT22;61127;55.826;37.046;2023-06-22T04:29:11;18.72;48.63
70321;DHT22;61127;55.826;37.046;2023-06-22T04:31:37;18.80;48.28
70321;DHT22;61127;55.826;37.046;2023-06-22T04:34:05;18.86;48.87
70321;DHT22;61127;55.826;37.046;2023-06-22T04:36:37;18.98;48.25
70321;DHT22;61127;55.826;37.046;2023-06-22T04:39:08;19.05;47.51
70321;DHT22;61127;55.826;37.046;2023-06-22T04:41:39;19.14;48.06
70321;DHT22;61127;55.826;37.046;2023-06-22T04:46:38;0.00;0.00
70321;DHT22;61127;55.826;37.046;2023-06-22T04:49:09;0.00;0.00
70321;DHT22;61127;55.826;37.046;2023-06-22T04:51:39;0.00;0.00
70321;DHT22;61127;55.826;37.046;2023-06-22T04:54:06;0.00;0.00
70321;DHT22;61127;55.826;37.046;2023-06-22T04:56:32;0.00;0.00
70321;DHT22;61127;55.826;37.046;2023-06-22T04:58:59;0.00;0.00
70321;DHT22;61127;55.826;37.046;2023-06-22T05:01:25;0.00;0.00
70321;DHT22;61127;55.826;37.046;2023-06-22T05:03:51;0.00;0.00
70321;DHT22;61127;55.826;37.046;2023-06-22T05:06:24;0.00;0.00
70321;DHT22;61127;55.826;37.046;2023-06-22T05:08:55;0.00;0.00
70321;DHT22;61127;55.826;37.046;2023-06-22T05:11:27;0.00;0.00
70321;DHT22;61127;55.826;37.046;2023-06-22T05:13:53;0.00;0.00
70321;DHT22;61127;55.826;37.046;2023-06-22T05:16:20;0.00;0.00
70321;DHT22;61127;55.826;37.046;2023-06-22T05:18:52;0.00;0.00
70321;DHT22;61127;55.826;37.046;2023-06-22T05:21:21;0.00;0.00
70321;DHT22;61127;55.826;37.046;2023-06-22T05:23:47;0.00;0.00
70321;DHT22;61127;55.826;37.046;2023-06-22T05:26:13;0.00;0.00
70321;DHT22;61127;55.826;37.046;2023-06-22T05:28:39;0.00;0.00
70321;DHT22;61127;55.826;37.046;2023-06-22T05:31:05;0.00;0.00
70321;DHT22;61127;55.826;37.046;2023-06-22T05:33:32;0.00;0.00
70321;DHT22;61127;55.826;37.046;2023-06-22T05:35:58;0.00;0.00
70321;DHT22;61127;55.826;37.046;2023-06-22T05:38:24;0.00;0.00
70321;DHT22;61127;55.826;37.046;2023-06-22T05:40:50;0.00;0.00
70321;DHT22;61127;55.826;37.046;2023-06-22T05:43:16;0.00;0.00
70321;DHT22;61127;55.826;37.046;2023-06-22T05:45:42;0.00;0.00
70321;DHT22;61127;55.826;37.046;2023-06-22T05:48:08;0.00;0.00
70321;DHT22;61127;55.826;37.046;2023-06-22T05:50:34;0.00;0.00
70321;DHT22;61127;55.826;37.046;2023-06-22T05:53:00;0.00;0.00
70321;DHT22;61127;55.826;37.046;2023-06-22T05:55:26;0.00;0.00
70321;DHT22;61127;55.826;37.046;2023-06-22T05:57:52;0.00;0.00
70321;DHT22;61127;55.826;37.046;2023-06-22T06:00:19;0.00;0.00
70321;DHT22;61127;55.826;37.046;2023-06-22T06:02:45;0.00;0.00
70321;DHT22;61127;55.826;37.046;2023-06-22T06:05:11;0.00;0.00
70321;DHT22;61127;55.826;37.046;2023-06-22T06:07:41;0.00;0.00
70321;DHT22;61127;55.826;37.046;2023-06-22T06:10:08;0.00;0.00
70321;DHT22;61127;55.826;37.046;2023-06-22T06:12:34;0.00;0.00
70321;DHT22;61127;55.826;37.046;2023-06-22T06:15:00;0.00;0.00
70321;DHT22;61127;55.826;37.046;2023-06-22T06:17:30;0.00;0.00
70321;DHT22;61127;55.826;37.046;2023-06-22T06:19:56;0.00;0.00
70321;DHT22;61127;55.826;37.046;2023-06-22T06:22:22;0.00;0.00
70321;DHT22;61127;55.826;37.046;2023-06-22T06:24:49;0.00;0.00
70321;DHT22;61127;55.826;37.046;2023-06-22T06:27:15;0.00;0.00
70321;DHT22;61127;55.826;37.046;2023-06-22T06:29:44;0.00;0.00
70321;DHT22;61127;55.826;37.046;2023-06-22T06:32:13;0.00;0.00
70321;DHT22;61127;55.826;37.046;2023-06-22T06:34:39;0.00;0.00
70321;DHT22;61127;55.826;37.046;2023-06-22T06:37:06;0.00;0.00
70321;DHT22;61127;55.826;37.046;2023-06-22T06:39:32;0.00;0.00
70321;DHT22;61127;55.826;37.046;2023-06-22T06:41:58;0.00;0.00
70321;DHT22;61127;55.826;37.046;2023-06-22T06:44:24;0.00;0.00
70321;DHT22;61127;55.826;37.046;2023-06-22T06:46:49;0.00;0.00
70321;DHT22;61127;55.826;37.046;2023-06-22T06:49:16;0.00;0.00
70321;DHT22;61127;55.826;37.046;2023-06-22T06:51:45;0.00;0.00
70321;DHT22;61127;55.826;37.046;2023-06-22T06:54:11;0.00;0.00
70321;DHT22;61127;55.826;37.046;2023-06-22T06:56:37;0.00;0.00
70321;DHT22;61127;55.826;37.046;2023-06-22T06:59:03;0.00;0.00
70321;DHT22;61127;55.826;37.046;2023-06-22T07:01:29;0.00;27.93
70321;DHT22;61127;55.826;37.046;2023-06-22T07:03:59;26.42;28.96
70321;DHT22;61127;55.826;37.046;2023-06-22T07:06:26;26.26;28.44
70321;DHT22;61127;55.826;37.046;2023-06-22T07:08:55;26.13;27.86
70321;DHT22;61127;55.826;37.046;2023-06-22T07:11:21;26.10;29.41
70321;DHT22;61127;55.826;37.046;2023-06-22T07:13:47;26.12;28.35
70321;DHT22;61127;55.826;37.046;2023-06-22T07:16:13;26.21;29.64
70321;DHT22;61127;55.826;37.046;2023-06-22T07:18:40;26.55;30.37
70321;DHT22;61127;55.826;37.046;2023-06-22T07:21:06;26.81;29.50
70321;DHT22;61127;55.826;37.046;2023-06-22T07:23:33;27.01;30.15
70321;DHT22;61127;55.826;37.046;2023-06-22T07:25:59;27.14;26.77
70321;DHT22;61127;55.826;37.046;2023-06-22T07:28:28;26.95;28.57
70321;DHT22;61127;55.826;37.046;2023-06-22T07:30:57;26.99;29.58
70321;DHT22;61127;55.826;37.046;2023-06-22T07:33:23;27.07;30.38
70321;DHT22;61127;55.826;37.046;2023-06-22T07:35:49;27.13;30.01
70321;DHT22;61127;55.826;37.046;2023-06-22T07:38:18;27.21;29.71
70321;DHT22;61127;55.826;37.046;2023-06-22T07:40:43;27.21;29.03
70321;DHT22;61127;55.826;37.046;2023-06-22T07:43:09;27.02;27.26
70321;DHT22;61127;55.826;37.046;2023-06-22T07:45:38;26.84;28.65
70321;DHT22;61127;55.826;37.046;2023-06-22T07:48:07;26.95;28.68
70321;DHT22;61127;55.826;37.046;2023-06-22T07:50:33;27.14;27.90
70321;DHT22;61127;55.826;37.046;2023-06-22T07:52:59;27.30;28.70
70321;DHT22;61127;55.826;37.046;2023-06-22T07:55:25;27.35;27.87
70321;DHT22;61127;55.826;37.046;2023-06-22T07:57:51;27.44;28.20
70321;DHT22;61127;55.826;37.046;2023-06-22T08:00:18;27.76;27.44
70321;DHT22;61127;55.826;37.046;2023-06-22T08:02:47;28.47;28.09
70321;DHT22;61127;55.826;37.046;2023-06-22T08:05:14;0.00;0.00
70321;DHT22;61127;55.826;37.046;2023-06-22T08:07:40;0.00;0.00
70321;DHT22;61127;55.826;37.046;2023-06-22T08:10:10;0.00;0.00
70321;DHT22;61127;55.826;37.046;2023-06-22T08:12:36;0.00;24.94
70321;DHT22;61127;55.826;37.046;2023-06-22T08:15:03;30.07;24.93
70321;DHT22;61127;55.826;37.046;2023-06-22T08:17:32;30.23;24.66
70321;DHT22;61127;55.826;37.046;2023-06-22T08:19:58;30.06;24.70
70321;DHT22;61127;55.826;37.046;2023-06-22T08:22:25;30.41;25.06
70321;DHT22;61127;55.826;37.046;2023-06-22T08:24:51;31.23;24.50
70321;DHT22;61127;55.826;37.046;2023-06-22T08:27:17;0.00;0.00
70321;DHT22;61127;55.826;37.046;2023-06-22T08:29:47;32.69;22.18
70321;DHT22;61127;55.826;37.046;2023-06-22T08:32:13;0.00;0.00
70321;DHT22;61127;55.826;37.046;2023-06-22T08:34:39;0.00;0.00
70321;DHT22;61127;55.826;37.046;2023-06-22T08:37:08;0.00;0.00
70321;DHT22;61127;55.826;37.046;2023-06-22T08:39:35;35.30;22.04
70321;DHT22;61127;55.826;37.046;2023-06-22T08:42:01;0.00;0.00
70321;DHT22;61127;55.826;37.046;2023-06-22T08:44:27;35.86;19.18
70321;DHT22;61127;55.826;37.046;2023-06-22T08:46:53;36.08;19.38
70321;DHT22;61127;55.826;37.046;2023-06-22T08:49:19;36.38;16.66
70321;DHT22;61127;55.826;37.046;2023-06-22T08:51:45;36.89;19.13
70321;DHT22;61127;55.826;37.046;2023-06-22T08:54:13;0.00;0.00
70321;DHT22;61127;55.826;37.046;2023-06-22T08:56:39;0.00;0.00
70321;DHT22;61127;55.826;37.046;2023-06-22T08:59:05;0.00;0.00
70321;DHT22;61127;55.826;37.046;2023-06-22T09:01:33;0.00;0.00
70321;DHT22;61127;55.826;37.046;2023-06-22T09:03:59;0.00;0.00
70321;DHT22;61127;55.826;37.046;2023-06-22T09:06:25;0.00;0.00
70321;DHT22;61127;55.826;37.046;2023-06-22T09:08:51;0.00;0.00
70321;DHT22;61127;55.826;37.046;2023-06-22T09:11:18;0.00;0.00
70321;DHT22;61127;55.826;37.046;2023-06-22T09:13:44;0.00;0.00
70321;DHT22;61127;55.826;37.046;2023-06-22T09:16:10;0.00;0.00
70321;DHT22;61127;55.826;37.046;2023-06-22T09:18:37;0.00;0.00
70321;DHT22;61127;55.826;37.046;2023-06-22T09:21:03;0.00;0.00
70321;DHT22;61127;55.826;37.046;2023-06-22T09:23:29;0.00;0.00
70321;DHT22;61127;55.826;37.046;2023-06-22T09:25:55;0.00;0.00
70321;DHT22;61127;55.826;37.046;2023-06-22T09:28:21;0.00;0.00
70321;DHT22;61127;55.826;37.046;2023-06-22T09:30:47;0.00;0.00
70321;DHT22;61127;55.826;37.046;2023-06-22T09:33:13;0.00;0.00
70321;DHT22;61127;55.826;37.046;2023-06-22T09:35:38;0.00;0.00
70321;DHT22;61127;55.826;37.046;2023-06-22T09:38:04;0.00;0.00
70321;DHT22;61127;55.826;37.046;2023-06-22T09:40:30;40.38;14.16
70321;DHT22;61127;55.826;37.046;2023-06-22T09:42:58;41.55;11.17
70321;DHT22;61127;55.826;37.046;2023-06-22T09:45:24;0.00;0.00
70321;DHT22;61127;55.826;37.046;2023-06-22T09:47:50;0.00;0.00
70321;DHT22;61127;55.826;37.046;2023-06-22T09:50:16;0.00;0.00
70321;DHT22;61127;55.826;37.046;2023-06-22T09:52:41;0.00;0.00
70321;DHT22;61127;55.826;37.046;2023-06-22T09:55:10;0.00;0.00
70321;DHT22;61127;55.826;37.046;2023-06-22T09:57:36;0.00;0.00
70321;DHT22;61127;55.826;37.046;2023-06-22T10:00:02;0.00;0.00
70321;DHT22;61127;55.826;37.046;2023-06-22T10:02:31;0.00;0.00
70321;DHT22;61127;55.826;37.046;2023-06-22T10:04:57;0.00;0.00
70321;DHT22;61127;55.826;37.046;2023-06-22T10:07:23;0.00;0.00
70321;DHT22;61127;55.826;37.046;2023-06-22T10:09:49;0.00;0.00
70321;DHT22;61127;55.826;37.046;2023-06-22T10:12:15;0.00;0.00
70321;DHT22;61127;55.826;37.046;2023-06-22T10:14:41;0.00;0.00
70321;DHT22;61127;55.826;37.046;2023-06-22T10:17:07;0.00;0.00
70321;DHT22;61127;55.826;37.046;2023-06-22T10:19:33;0.00;0.00
70321;DHT22;61127;55.826;37.046;2023-06-22T10:21:59;0.00;0.00
70321;DHT22;61127;55.826;37.046;2023-06-22T10:24:25;0.00;0.00
70321;DHT22;61127;55.826;37.046;2023-06-22T10:26:51;0.00;0.00
70321;DHT22;61127;55.826;37.046;2023-06-22T10:29:16;0.00;0.00
70321;DHT22;61127;55.826;37.046;2023-06-22T10:31:43;0.00;0.00
70321;DHT22;61127;55.826;37.046;2023-06-22T10:34:09;0.00;0.00
70321;DHT22;61127;55.826;37.046;2023-06-22T10:36:35;0.00;0.00
70321;DHT22;61127;55.826;37.046;2023-06-22T10:39:01;0.00;0.00
70321;DHT22;61127;55.826;37.046;2023-06-22T10:41:28;0.00;0.00
70321;DHT22;61127;55.826;37.046;2023-06-22T10:43:56;0.00;0.00
70321;DHT22;61127;55.826;37.046;2023-06-22T10:46:24;0.00;0.00
70321;DHT22;61127;55.826;37.046;2023-06-22T10:48:52;0.00;0.00
70321;DHT22;61127;55.826;37.046;2023-06-22T10:51:20;0.00;0.00
70321;DHT22;61127;55.826;37.046;2023-06-22T10:53:46;0.00;0.00
70321;DHT22;61127;55.826;37.046;2023-06-22T10:56:12;0.00;0.00
70321;DHT22;61127;55.826;37.046;2023-06-22T10:58:38;0.00;0.00
70321;DHT22;61127;55.826;37.046;2023-06-22T11:01:05;0.00;0.00
70321;DHT22;61127;55.826;37.046;2023-06-22T11:03:31;0.00;0.00
70321;DHT22;61127;55.826;37.046;2023-06-22T11:05:57;0.00;0.00
70321;DHT22;61127;55.826;37.046;2023-06-22T11:08:22;0.00;0.00
70321;DHT22;61127;55.826;37.046;2023-06-22T11:10:50;0.00;0.00
70321;DHT22;61127;55.826;37.046;2023-06-22T11:13:16;0.00;0.00
70321;DHT22;61127;55.826;37.046;2023-06-22T11:15:42;0.00;0.00
70321;DHT22;61127;55.826;37.046;2023-06-22T11:18:08;0.00;0.00
70321;DHT22;61127;55.826;37.046;2023-06-22T11:20:34;0.00;0.00
70321;DHT22;61127;55.826;37.046;2023-06-22T11:23:05;0.00;0.00
70321;DHT22;61127;55.826;37.046;2023-06-22T11:25:34;0.00;0.00
70321;DHT22;61127;55.826;37.046;2023-06-22T11:28:04;0.00;0.00
70321;DHT22;61127;55.826;37.046;2023-06-22T11:30:30;0.00;0.00
70321;DHT22;61127;55.826;37.046;2023-06-22T11:32:58;0.00;0.00
70321;DHT22;61127;55.826;37.046;2023-06-22T11:35:24;0.00;0.00
70321;DHT22;61127;55.826;37.046;2023-06-22T11:37:50;0.00;0.00
70321;DHT22;61127;55.826;37.046;2023-06-22T11:40:16;0.00;0.00
70321;DHT22;61127;55.826;37.046;2023-06-22T11:42:43;0.00;0.00
70321;DHT22;61127;55.826;37.046;2023-06-22T11:45:10;0.00;0.00
70321;DHT22;61127;55.826;37.046;2023-06-22T11:47:36;0.00;0.00
70321;DHT22;61127;55.826;37.046;2023-06-22T11:50:03;0.00;0.00
70321;DHT22;61127;55.826;37.046;2023-06-22T11:52:29;0.00;0.00
70321;DHT22;61127;55.826;37.046;2023-06-22T11:54:55;0.00;0.00
70321;DHT22;61127;55.826;37.046;2023-06-22T11:57:21;0.00;0.00
70321;DHT22;61127;55.826;37.046;2023-06-22T11:59:47;0.00;0.00
70321;DHT22;61127;55.826;37.046;2023-06-22T12:02:16;0.00;0.00
70321;DHT22;61127;55.826;37.046;2023-06-22T12:04:42;0.00;0.00
70321;DHT22;61127;55.826;37.046;2023-06-22T12:07:08;0.00;0.00
70321;DHT22;61127;55.826;37.046;2023-06-22T12:09:34;0.00;0.00
70321;DHT22;61127;55.826;37.046;2023-06-22T12:12:00;0.00;0.00
70321;DHT22;61127;55.826;37.046;2023-06-22T12:14:26;0.00;0.00
70321;DHT22;61127;55.826;37.046;2023-06-22T12:16:51;0.00;0.00
70321;DHT22;61127;55.826;37.046;2023-06-22T12:19:17;0.00;0.00
70321;DHT22;61127;55.826;37.046;2023-06-22T12:21:43;0.00;0.00
70321;DHT22;61127;55.826;37.046;2023-06-22T12:24:11;0.00;0.00
70321;DHT22;61127;55.826;37.046;2023-06-22T12:26:37;0.00;0.00
70321;DHT22;61127;55.826;37.046;2023-06-22T12:29:03;0.00;0.00
70321;DHT22;61127;55.826;37.046;2023-06-22T12:31:30;0.00;0.00
70321;DHT22;61127;55.826;37.046;2023-06-22T12:33:56;0.00;0.00
70321;DHT22;61127;55.826;37.046;2023-06-22T12:36:22;0.00;0.00
70321;DHT22;61127;55.826;37.046;2023-06-22T12:38:48;0.00;0.00
70321;DHT22;61127;55.826;37.046;2023-06-22T12:41:14;0.00;0.00
70321;DHT22;61127;55.826;37.046;2023-06-22T12:43:40;0.00;0.00
70321;DHT22;61127;55.826;37.046;2023-06-22T12:46:06;0.00;0.00
70321;DHT22;61127;55.826;37.046;2023-06-22T12:48:32;0.00;0.00
70321;DHT22;61127;55.826;37.046;2023-06-22T12:50:58;0.00;0.00
70321;DHT22;61127;55.826;37.046;2023-06-22T12:53:24;0.00;0.00
70321;DHT22;61127;55.826;37.046;2023-06-22T12:55:52;0.00;0.00
70321;DHT22;61127;55.826;37.046;2023-06-22T12:58:19;0.00;0.00
70321;DHT22;61127;55.826;37.046;2023-06-22T13:00:45;0.00;0.00
70321;DHT22;61127;55.826;37.046;2023-06-22T13:03:11;0.00;0.00
70321;DHT22;61127;55.826;37.046;2023-06-22T13:05:37;0.00;0.00
70321;DHT22;61127;55.826;37.046;2023-06-22T13:08:04;0.00;0.00
70321;DHT22;61127;55.826;37.046;2023-06-22T13:10:29;0.00;0.00
70321;DHT22;61127;55.826;37.046;2023-06-22T13:12:55;0.00;0.00
70321;DHT22;61127;55.826;37.046;2023-06-22T13:15:28;0.00;0.00
70321;DHT22;61127;55.826;37.046;2023-06-22T13:17:55;0.00;0.00
70321;DHT22;61127;55.826;37.046;2023-06-22T13:20:21;0.00;0.00
70321;DHT22;61127;55.826;37.046;2023-06-22T13:22:47;0.00;6.69
70321;DHT22;61127;55.826;37.046;2023-06-22T13:25:13;38.26;8.29
70321;DHT22;61127;55.826;37.046;2023-06-22T13:27:45;36.84;8.92
70321;DHT22;61127;55.826;37.046;2023-06-22T13:30:11;36.55;9.80
70321;DHT22;61127;55.826;37.046;2023-06-22T13:32:37;36.92;10.28
70321;DHT22;61127;55.826;37.046;2023-06-22T13:35:03;0.00;0.00
70321;DHT22;61127;55.826;37.046;2023-06-22T13:37:31;37.54;10.60
70321;DHT22;61127;55.826;37.046;2023-06-22T13:39:56;37.50;10.63
70321;DHT22;61127;55.826;37.046;2023-06-22T13:42:25;37.23;11.21
70321;DHT22;61127;55.826;37.046;2023-06-22T13:44:51;36.91;11.08
70321;DHT22;61127;55.826;37.046;2023-06-22T13:47:17;36.32;12.11
70321;DHT22;61127;55.826;37.046;2023-06-22T13:49:43;35.63;11.73
70321;DHT22;61127;55.826;37.046;2023-06-22T13:52:09;35.10;13.20
70321;DHT22;61127;55.826;37.046;2023-06-22T13:54:36;34.48;13.91
70321;DHT22;61127;55.826;37.046;2023-06-22T13:57:02;34.04;13.44
70321;DHT22;61127;55.826;37.046;2023-06-22T13:59:28;33.70;13.97
70321;DHT22;61127;55.826;37.046;2023-06-22T14:01:54;33.44;14.26
70321;DHT22;61127;55.826;37.046;2023-06-22T14:04:22;33.31;14.66
70321;DHT22;61127;55.826;37.046;2023-06-22T14:06:48;32.84;14.55
70321;DHT22;61127;55.826;37.046;2023-06-22T14:09:15;32.56;14.84
70321;DHT22;61127;55.826;37.046;2023-06-22T14:11:41;32.44;15.53
70321;DHT22;61127;55.826;37.046;2023-06-22T14:14:06;32.12;15.16
70321;DHT22;61127;55.826;37.046;2023-06-22T14:16:33;31.80;15.29
70321;DHT22;61127;55.826;37.046;2023-06-22T14:18:58;31.52;16.22
70321;DHT22;61127;55.826;37.046;2023-06-22T14:21:25;31.22;16.19
70321;DHT22;61127;55.826;37.046;2023-06-22T14:23:51;30.98;16.29
70321;DHT22;61127;55.826;37.046;2023-06-22T14:26:18;30.90;16.82
70321;DHT22;61127;55.826;37.046;2023-06-22T14:28:47;30.75;17.12
70321;DHT22;61127;55.826;37.046;2023-06-22T14:31:19;30.63;17.48
70321;DHT22;61127;55.826;37.046;2023-06-22T14:33:49;30.56;17.80
70321;DHT22;61127;55.826;37.046;2023-06-22T14:36:16;30.52;17.45
70321;DHT22;61127;55.826;37.046;2023-06-22T14:38:45;30.47;17.43
70321;DHT22;61127;55.826;37.046;2023-06-22T14:41:12;30.47;17.83
70321;DHT22;61127;55.826;37.046;2023-06-22T14:43:37;30.33;19.34
70321;DHT22;61127;55.826;37.046;2023-06-22T14:46:04;30.16;17.80
70321;DHT22;61127;55.826;37.046;2023-06-22T14:48:29;30.11;18.75
70321;DHT22;61127;55.826;37.046;2023-06-22T14:50:56;29.97;19.74
70321;DHT22;61127;55.826;37.046;2023-06-22T14:53:22;29.85;19.16
70321;DHT22;61127;55.826;37.046;2023-06-22T14:55:49;29.76;19.35
70321;DHT22;61127;55.826;37.046;2023-06-22T14:58:14;29.74;19.18
70321;DHT22;61127;55.826;37.046;2023-06-22T15:00:40;29.63;19.67
70321;DHT22;61127;55.826;37.046;2023-06-22T15:03:06;29.57;19.04
70321;DHT22;61127;55.826;37.046;2023-06-22T15:05:36;29.50;19.67
70321;DHT22;61127;55.826;37.046;2023-06-22T15:08:02;29.42;19.79
70321;DHT22;61127;55.826;37.046;2023-06-22T15:10:28;29.34;19.83
70321;DHT22;61127;55.826;37.046;2023-06-22T15:12:54;29.30;19.47
70321;DHT22;61127;55.826;37.046;2023-06-22T15:15:20;29.29;20.82
70321;DHT22;61127;55.826;37.046;2023-06-22T15:17:46;29.28;20.15
70321;DHT22;61127;55.826;37.046;2023-06-22T15:20:12;29.22;20.03
70321;DHT22;61127;55.826;37.046;2023-06-22T15:22:38;29.17;20.47
70321;DHT22;61127;55.826;37.046;2023-06-22T15:25:04;29.15;20.17
70321;DHT22;61127;55.826;37.046;2023-06-22T15:27:30;29.08;19.99
70321;DHT22;61127;55.826;37.046;2023-06-22T15:29:56;29.04;20.35
70321;DHT22;61127;55.826;37.046;2023-06-22T15:32:23;28.95;21.42
70321;DHT22;61127;55.826;37.046;2023-06-22T15:34:49;28.91;20.70
70321;DHT22;61127;55.826;37.046;2023-06-22T15:37:16;28.84;21.47
70321;DHT22;61127;55.826;37.046;2023-06-22T15:39:42;28.73;21.98
70321;DHT22;61127;55.826;37.046;2023-06-22T15:42:08;28.67;21.38
70321;DHT22;61127;55.826;37.046;2023-06-22T15:44:34;28.63;21.63
70321;DHT22;61127;55.826;37.046;2023-06-22T15:47:01;28.59;21.47